Time;durP1;ratioP1;P1;durP2;ratioP2;P2;SDS_P1;SDS_P2;PMS_P1;PMS_P2;Temp;Humidity;BMP_temperature;BMP_pressure;BME280_temperature;BME280_humidity;BME280_pressure;Samples;Min_cycle;Max_cycle;Signal;HPM_P1;HPM_P2
2023/04/02 00:01:37;;;;;;;9.18;2.60;;;;;;;;;;6165044;23;20526;-43
2023/04/02 00:04:13;;;;;;;5.70;2.20;;;;;;;;;;6158687;23;20084;-42
2023/04/02 00:06:44;;;;;;;5.90;1.75;;;;;;;;;;6158227;23;20052;-42
2023/04/02 00:09:33;;;;;;;8.98;2.30;;;;;;;;;;6163373;23;20400;-43
2023/04/02 00:12:14;;;;;;;5.97;1.77;;;;;;;;;;6152748;23;20017;-43
2023/04/02 00:14:46;;;;;;;6.65;2.20;;;;;;;;;;6158807;23;20020;-42
2023/04/02 00:17:32;;;;;;;8.17;2.07;;;;;;;;;;6152267;23;20024;-43
2023/04/02 00:20:05;;;;;;;7.28;2.30;;;;;;;;;;6136797;23;20041;-44
2023/04/02 00:22:33;;;;;;;7.13;2.42;;;;;;;;;;6157129;23;20025;-43
2023/04/02 00:25:07;;;;;;;7.55;2.15;;;;;;;;;;6158670;23;20044;-42
2023/04/02 00:27:35;;;;;;;8.40;3.05;;;;;;;;;;6158736;23;20063;-44
2023/04/02 00:30:03;;;;;;;7.57;2.93;;;;;;;;;;6160610;23;20084;-44
2023/04/02 00:32:32;;;;;;;10.80;3.05;;;;;;;;;;6156847;23;20041;-43
2023/04/02 00:35:00;;;;;;;8.65;3.15;;;;;;;;;;6164620;23;20028;-42
2023/04/02 00:37:37;;;;;;;8.85;2.63;;;;;;;;;;6151339;23;20044;-43
2023/04/02 00:40:09;;;;;;;8.45;3.10;;;;;;;;;;6159429;23;20017;-43
2023/04/02 00:42:39;;;;;;;9.97;2.70;;;;;;;;;;6158840;23;21029;-42
2023/04/02 00:45:08;;;;;;;8.27;2.40;;;;;;;;;;6160241;23;20021;-43
2023/04/02 00:47:37;;;;;;;8.05;2.55;;;;;;;;;;6163527;23;20092;-43
2023/04/02 00:50:06;;;;;;;7.40;2.80;;;;;;;;;;6153173;23;20063;-40
2023/04/02 00:52:35;;;;;;;7.60;2.90;;;;;;;;;;6160237;23;20017;-42
2023/04/02 00:55:06;;;;;;;7.63;2.47;;;;;;;;;;6165180;23;20044;-44
2023/04/02 00:57:35;;;;;;;9.10;2.90;;;;;;;;;;6124186;23;20641;-44
2023/04/02 01:00:16;;;;;;;8.18;2.88;;;;;;;;;;6164252;23;20017;-42
2023/04/02 01:03:04;;;;;;;8.43;2.78;;;;;;;;;;6158985;23;20478;-43
2023/04/02 01:05:34;;;;;;;7.90;2.70;;;;;;;;;;6155580;23;20023;-44
2023/04/02 01:08:06;;;;;;;7.37;2.50;;;;;;;;;;6165233;23;20025;-43
2023/04/02 01:10:40;;;;;;;9.70;2.55;;;;;;;;;;6155825;23;20017;-43
2023/04/02 01:13:13;;;;;;;8.95;2.67;;;;;;;;;;6161096;23;20064;-42
2023/04/02 01:15:42;;;;;;;7.40;2.65;;;;;;;;;;6165943;23;20060;-42
2023/04/02 01:18:25;;;;;;;9.02;2.83;;;;;;;;;;6142835;23;20028;-43
2023/04/02 01:21:10;;;;;;;6.47;2.00;;;;;;;;;;6162553;23;20017;-43
2023/04/02 01:23:44;;;;;;;5.75;1.52;;;;;;;;;;6146715;23;20412;-42
2023/04/02 01:26:16;;;;;;;6.47;1.73;;;;;;;;;;6157951;23;20013;-43
2023/04/02 01:28:50;;;;;;;4.78;1.15;;;;;;;;;;6161976;23;20043;-44
2023/04/02 01:31:18;;;;;;;4.38;1.05;;;;;;;;;;6160062;23;20020;-42
2023/04/02 01:33:46;;;;;;;4.17;0.80;;;;;;;;;;6161313;23;20047;-44
2023/04/02 01:36:17;;;;;;;4.38;0.70;;;;;;;;;;6157909;23;20082;-42
2023/04/02 01:38:47;;;;;;;4.07;0.90;;;;;;;;;;6162369;23;20043;-42
2023/04/02 01:41:20;;;;;;;4.85;0.80;;;;;;;;;;6159243;23;20467;-43
2023/04/02 01:43:52;;;;;;;4.13;0.95;;;;;;;;;;6130292;23;20017;-42
2023/04/02 01:46:24;;;;;;;4.70;1.10;;;;;;;;;;6156156;23;20456;-42
2023/04/02 01:48:52;;;;;;;4.70;1.00;;;;;;;;;;6157364;23;20017;-41
2023/04/02 01:51:26;;;;;;;4.60;0.95;;;;;;;;;;6157905;23;20092;-42
2023/04/02 01:53:56;;;;;;;4.35;0.80;;;;;;;;;;6153000;23;20469;-42
2023/04/02 01:56:23;;;;;;;4.65;0.70;;;;;;;;;;6161539;23;20021;-41
2023/04/02 01:58:52;;;;;;;4.27;0.50;;;;;;;;;;6156807;23;20048;-43
2023/04/02 02:01:22;;;;;;;3.70;0.52;;;;;;;;;;6161055;23;20052;-42
2023/04/02 02:03:51;;;;;;;3.65;0.77;;;;;;;;;;6142641;23;20024;-41
2023/04/02 02:06:19;;;;;;;3.83;0.70;;;;;;;;;;6133367;23;20076;-41
2023/04/02 02:08:48;;;;;;;5.55;0.73;;;;;;;;;;6161023;23;20017;-43
2023/04/02 02:11:17;;;;;;;3.60;0.70;;;;;;;;;;6160737;23;20017;-41
2023/04/02 02:13:46;;;;;;;4.35;0.70;;;;;;;;;;6161761;23;20017;-42
2023/04/02 02:16:17;;;;;;;5.50;0.82;;;;;;;;;;6151736;23;20481;-42
2023/04/02 02:18:46;;;;;;;4.40;1.00;;;;;;;;;;6163389;23;20047;-43
2023/04/02 02:21:16;;;;;;;4.35;0.60;;;;;;;;;;6157377;23;20064;-42
2023/04/02 02:23:44;;;;;;;3.97;0.73;;;;;;;;;;6161883;23;20096;-43
2023/04/02 02:26:13;;;;;;;3.80;0.60;;;;;;;;;;6158928;23;20053;-43
2023/04/02 02:28:42;;;;;;;4.03;0.70;;;;;;;;;;6155339;23;20052;-42
2023/04/02 02:31:16;;;;;;;4.50;1.02;;;;;;;;;;6153610;23;20036;-42
2023/04/02 02:33:46;;;;;;;4.35;1.00;;;;;;;;;;6159296;23;20083;-41
2023/04/02 02:36:17;;;;;;;3.97;0.90;;;;;;;;;;6158267;23;20068;-44
2023/04/02 02:38:51;;;;;;;5.68;1.08;;;;;;;;;;6161416;23;20029;-42
2023/04/02 02:41:25;;;;;;;5.07;0.90;;;;;;;;;;6161427;23;20009;-46
2023/04/02 02:43:57;;;;;;;4.68;1.13;;;;;;;;;;6156778;23;20075;-42
2023/04/02 02:46:25;;;;;;;4.38;1.00;;;;;;;;;;6159156;23;20059;-42
2023/04/02 02:48:55;;;;;;;4.53;1.10;;;;;;;;;;6154695;23;20398;-44
2023/04/02 02:51:27;;;;;;;4.53;0.68;;;;;;;;;;6155108;23;20100;-43
2023/04/02 02:53:56;;;;;;;4.13;1.00;;;;;;;;;;6132458;23;20029;-42
2023/04/02 02:56:25;;;;;;;5.90;0.75;;;;;;;;;;6159721;23;20041;-44
2023/04/02 02:58:53;;;;;;;5.63;1.10;;;;;;;;;;6160560;23;20017;-44
2023/04/02 03:01:21;;;;;;;4.43;0.73;;;;;;;;;;6155249;23;20097;-43
2023/04/02 03:03:52;;;;;;;4.30;0.90;;;;;;;;;;6159364;23;20172;-44
2023/04/02 03:06:22;;;;;;;4.93;0.88;;;;;;;;;;6152435;23;20042;-43
2023/04/02 03:08:53;;;;;;;5.43;1.50;;;;;;;;;;6161801;23;20028;-42
2023/04/02 03:11:25;;;;;;;4.50;1.05;;;;;;;;;;6159437;23;20017;-42
2023/04/02 03:13:55;;;;;;;4.73;0.97;;;;;;;;;;6156989;23;20013;-42
2023/04/02 03:16:25;;;;;;;5.60;0.93;;;;;;;;;;6163848;23;20017;-46
2023/04/02 03:18:57;;;;;;;4.13;0.85;;;;;;;;;;6152476;23;20027;-43
2023/04/02 03:21:31;;;;;;;4.65;1.05;;;;;;;;;;6144298;23;20075;-42
2023/04/02 03:24:00;;;;;;;4.57;0.80;;;;;;;;;;6154820;23;20037;-42
2023/04/02 03:26:32;;;;;;;7.50;1.07;;;;;;;;;;6130778;23;20756;-42
2023/04/02 03:29:02;;;;;;;4.20;0.90;;;;;;;;;;6132260;23;20045;-42
2023/04/02 03:31:32;;;;;;;6.57;1.20;;;;;;;;;;6128519;23;20424;-42
2023/04/02 03:34:07;;;;;;;4.80;0.80;;;;;;;;;;6163760;23;20095;-42
2023/04/02 03:36:42;;;;;;;5.15;1.17;;;;;;;;;;6155098;23;20099;-41
2023/04/02 03:39:12;;;;;;;4.73;0.77;;;;;;;;;;6145020;23;20024;-43
2023/04/02 03:41:41;;;;;;;4.18;0.70;;;;;;;;;;6160516;23;20514;-42
2023/04/02 03:44:16;;;;;;;4.97;0.90;;;;;;;;;;6154518;23;20332;-43
2023/04/02 03:46:45;;;;;;;4.18;0.73;;;;;;;;;;6130770;23;20071;-41
2023/04/02 03:49:17;;;;;;;4.75;1.00;;;;;;;;;;6160756;23;20123;-42
2023/04/02 03:51:50;;;;;;;6.07;0.90;;;;;;;;;;6163859;23;20027;-43
2023/04/02 03:54:19;;;;;;;4.53;0.98;;;;;;;;;;6158714;23;20100;-42
2023/04/02 03:56:47;;;;;;;5.05;0.95;;;;;;;;;;6145567;23;20104;-43
2023/04/02 03:59:19;;;;;;;4.97;1.25;;;;;;;;;;6152007;23;20107;-43
2023/04/02 04:01:49;;;;;;;5.20;1.00;;;;;;;;;;6163862;23;20528;-43
2023/04/02 04:04:19;;;;;;;5.27;0.90;;;;;;;;;;6153126;23;20079;-42
2023/04/02 04:06:51;;;;;;;5.40;1.10;;;;;;;;;;6156993;23;20021;-42
2023/04/02 04:09:20;;;;;;;4.63;0.90;;;;;;;;;;6155624;23;20125;-44
2023/04/02 04:11:50;;;;;;;4.90;0.93;;;;;;;;;;6157041;23;20815;-42
2023/04/02 04:14:19;;;;;;;5.15;0.82;;;;;;;;;;6162464;23;20123;-45
2023/04/02 04:16:52;;;;;;;5.20;0.80;;;;;;;;;;6158876;23;20191;-42
2023/04/02 04:19:22;;;;;;;6.30;1.10;;;;;;;;;;6163888;23;20052;-42
2023/04/02 04:21:55;;;;;;;5.65;1.38;;;;;;;;;;6155547;23;20013;-43
2023/04/02 04:24:24;;;;;;;6.85;1.05;;;;;;;;;;6159935;23;20096;-42
2023/04/02 04:26:53;;;;;;;3.55;0.63;;;;;;;;;;6161169;23;20017;-42
2023/04/02 04:29:30;;;;;;;6.00;1.07;;;;;;;;;;6155922;23;20941;-42
2023/04/02 04:32:09;;;;;;;5.20;0.90;;;;;;;;;;6167050;23;20104;-43
2023/04/02 04:34:41;;;;;;;5.32;0.95;;;;;;;;;;6147853;23;20691;-42
2023/04/02 04:37:24;;;;;;;4.35;0.88;;;;;;;;;;6154504;23;20041;-42
2023/04/02 04:39:55;;;;;;;3.65;0.77;;;;;;;;;;6159167;23;20021;-42
2023/04/02 04:42:24;;;;;;;3.67;0.50;;;;;;;;;;6153818;23;20107;-42
2023/04/02 04:44:55;;;;;;;5.85;0.93;;;;;;;;;;6161506;23;20063;-44
2023/04/02 04:47:26;;;;;;;4.60;0.90;;;;;;;;;;6157163;23;20067;-41
2023/04/02 04:49:55;;;;;;;5.75;1.30;;;;;;;;;;6164393;23;20313;-43
2023/04/02 04:52:26;;;;;;;5.05;1.15;;;;;;;;;;6151673;23;20017;-44
2023/04/02 04:54:53;;;;;;;6.30;0.97;;;;;;;;;;6128579;23;20706;-42
2023/04/02 04:57:29;;;;;;;5.00;0.95;;;;;;;;;;6158266;23;20068;-42
2023/04/02 05:00:01;;;;;;;5.00;1.02;;;;;;;;;;6153954;23;20017;-44
2023/04/02 05:02:31;;;;;;;4.28;0.88;;;;;;;;;;6158544;23;20093;-43
2023/04/02 05:05:00;;;;;;;5.57;1.55;;;;;;;;;;6157163;23;20347;-42
2023/04/02 05:07:30;;;;;;;6.60;1.50;;;;;;;;;;6157843;23;20075;-42
2023/04/02 05:10:00;;;;;;;6.53;1.60;;;;;;;;;;6152233;23;20056;-43
2023/04/02 05:12:33;;;;;;;6.72;1.60;;;;;;;;;;6160398;23;20071;-42
2023/04/02 05:15:04;;;;;;;7.03;1.52;;;;;;;;;;6158154;23;20013;-42
2023/04/02 05:17:34;;;;;;;6.00;1.50;;;;;;;;;;6137380;23;20052;-42
2023/04/02 05:20:06;;;;;;;7.73;1.83;;;;;;;;;;6156895;23;20028;-44
2023/04/02 05:22:38;;;;;;;6.53;1.50;;;;;;;;;;6154881;23;20013;-43
2023/04/02 05:25:13;;;;;;;8.52;2.00;;;;;;;;;;6160279;23;20013;-43
2023/04/02 05:27:43;;;;;;;6.70;2.22;;;;;;;;;;6134145;23;20043;-44
2023/04/02 05:30:15;;;;;;;7.43;1.85;;;;;;;;;;6159881;23;20052;-42
2023/04/02 05:32:47;;;;;;;5.60;1.33;;;;;;;;;;6131296;23;20613;-42
2023/04/02 05:35:16;;;;;;;8.00;1.95;;;;;;;;;;6132192;23;20040;-43
2023/04/02 05:37:46;;;;;;;7.85;1.52;;;;;;;;;;6157132;23;20040;-43
2023/04/02 05:40:15;;;;;;;8.15;2.13;;;;;;;;;;6163928;23;20021;-42
2023/04/02 05:42:45;;;;;;;6.32;1.70;;;;;;;;;;6158321;23;20909;-42
2023/04/02 05:45:19;;;;;;;5.93;1.43;;;;;;;;;;6163522;23;20448;-45
2023/04/02 05:47:48;;;;;;;5.78;1.30;;;;;;;;;;6130855;23;20495;-42
2023/04/02 05:50:20;;;;;;;7.25;1.58;;;;;;;;;;6136181;23;20021;-43
2023/04/02 05:52:51;;;;;;;5.63;1.23;;;;;;;;;;6158047;23;20127;-45
2023/04/02 05:55:27;;;;;;;4.80;1.10;;;;;;;;;;6126576;23;20730;-43
2023/04/02 05:57:56;;;;;;;5.63;1.20;;;;;;;;;;6160800;23;20463;-42
2023/04/02 06:00:50;;;;;;;7.43;1.50;;;;;;;;;;6158487;23;20048;-42
2023/04/02 06:03:22;;;;;;;6.78;1.58;;;;;;;;;;6156493;23;20064;-42
2023/04/02 06:05:51;;;;;;;5.85;1.30;;;;;;;;;;6137968;23;20395;-42
2023/04/02 06:08:22;;;;;;;6.00;1.30;;;;;;;;;;6156262;23;20048;-43
2023/04/02 06:10:53;;;;;;;6.93;1.47;;;;;;;;;;6161517;23;20021;-43
2023/04/02 06:13:21;;;;;;;5.00;1.30;;;;;;;;;;6160216;23;20017;-40
2023/04/02 06:15:48;;;;;;;7.47;1.75;;;;;;;;;;6161300;23;20295;-41
2023/04/02 06:18:19;;;;;;;7.30;1.73;;;;;;;;;;6158113;23;20068;-43
2023/04/02 06:20:47;;;;;;;5.80;1.50;;;;;;;;;;6162089;23;20536;-41
2023/04/02 06:23:16;;;;;;;6.10;1.63;;;;;;;;;;6129541;23;20075;-41
2023/04/02 06:25:48;;;;;;;6.55;1.92;;;;;;;;;;6156358;23;20013;-41
2023/04/02 06:28:18;;;;;;;7.93;1.75;;;;;;;;;;6166505;23;20041;-44
2023/04/02 06:30:45;;;;;;;10.82;2.40;;;;;;;;;;6151603;23;20040;-43
2023/04/02 06:33:14;;;;;;;7.80;2.72;;;;;;;;;;6153565;23;20020;-43
2023/04/02 06:35:45;;;;;;;8.37;2.50;;;;;;;;;;6161149;23;20013;-42
2023/04/02 06:38:15;;;;;;;9.80;2.50;;;;;;;;;;6156294;23;20204;-43
2023/04/02 06:40:47;;;;;;;9.05;2.40;;;;;;;;;;6155760;23;20456;-42
2023/04/02 06:43:19;;;;;;;7.10;1.70;;;;;;;;;;6163953;23;20013;-42
2023/04/02 06:45:49;;;;;;;9.13;2.35;;;;;;;;;;6151895;23;20045;-42
2023/04/02 06:48:19;;;;;;;9.57;2.63;;;;;;;;;;6160169;23;20447;-42
2023/04/02 06:50:48;;;;;;;12.10;2.80;;;;;;;;;;6154259;23;20679;-43
2023/04/02 06:53:19;;;;;;;8.63;2.40;;;;;;;;;;6161496;23;20071;-43
2023/04/02 06:55:48;;;;;;;9.65;2.35;;;;;;;;;;6155887;23;20017;-43
2023/04/02 06:58:18;;;;;;;9.57;3.03;;;;;;;;;;6162820;23;20013;-43
2023/04/02 07:00:46;;;;;;;8.57;2.13;;;;;;;;;;6132960;23;20589;-42
2023/04/02 07:03:15;;;;;;;10.27;2.38;;;;;;;;;;6157553;23;20511;-42
2023/04/02 07:05:42;;;;;;;8.55;2.60;;;;;;;;;;6160601;23;20045;-43
2023/04/02 07:08:10;;;;;;;9.35;2.95;;;;;;;;;;6152315;23;20049;-42
2023/04/02 07:10:38;;;;;;;8.20;2.47;;;;;;;;;;6162179;23;20060;-44
2023/04/02 07:13:07;;;;;;;10.27;2.60;;;;;;;;;;6157177;23;20013;-44
2023/04/02 07:15:36;;;;;;;9.15;2.70;;;;;;;;;;6156363;23;20047;-43
2023/04/02 07:18:05;;;;;;;8.40;2.95;;;;;;;;;;6155137;23;20021;-42
2023/04/02 07:20:36;;;;;;;12.45;2.58;;;;;;;;;;6160608;23;20051;-44
2023/04/02 07:23:04;;;;;;;11.35;2.75;;;;;;;;;;6157916;23;20023;-42
2023/04/02 07:25:31;;;;;;;9.10;2.80;;;;;;;;;;6160765;23;20040;-46
2023/04/02 07:28:00;;;;;;;9.77;2.50;;;;;;;;;;6159880;23;20013;-42
2023/04/02 07:30:27;;;;;;;8.40;2.40;;;;;;;;;;6159065;23;20048;-43
2023/04/02 07:32:56;;;;;;;8.25;2.40;;;;;;;;;;6159863;23;20327;-42
2023/04/02 07:35:25;;;;;;;14.65;3.30;;;;;;;;;;6156302;23;20020;-44
2023/04/02 07:37:53;;;;;;;7.80;2.47;;;;;;;;;;6154481;23;20013;-43
2023/04/02 07:40:23;;;;;;;10.00;2.40;;;;;;;;;;6136879;23;20511;-42
2023/04/02 07:42:50;;;;;;;9.23;2.63;;;;;;;;;;6154471;23;20055;-44
2023/04/02 07:45:18;;;;;;;8.75;2.35;;;;;;;;;;6162676;23;20107;-44
2023/04/02 07:47:46;;;;;;;8.50;1.77;;;;;;;;;;6152305;23;20017;-42
2023/04/02 07:50:15;;;;;;;7.17;1.67;;;;;;;;;;6162980;23;20092;-44
2023/04/02 07:52:43;;;;;;;8.63;2.22;;;;;;;;;;6156502;23;20108;-43
2023/04/02 07:55:12;;;;;;;8.57;2.10;;;;;;;;;;6162020;23;20020;-44
2023/04/02 07:57:40;;;;;;;7.72;2.42;;;;;;;;;;6160869;23;20044;-43
2023/04/02 08:00:12;;;;;;;7.70;1.90;;;;;;;;;;6159470;23;20280;-42
2023/04/02 08:02:40;;;;;;;6.77;1.73;;;;;;;;;;6160687;23;20017;-42
2023/04/02 08:05:08;;;;;;;7.43;1.92;;;;;;;;;;6156847;23;20013;-45
2023/04/02 08:07:37;;;;;;;8.40;1.98;;;;;;;;;;6162640;23;20484;-42
2023/04/02 08:10:06;;;;;;;7.45;2.10;;;;;;;;;;6150708;23;20021;-43
2023/04/02 08:12:33;;;;;;;7.70;2.10;;;;;;;;;;6163524;23;20013;-42
2023/04/02 08:15:01;;;;;;;8.67;2.10;;;;;;;;;;6129784;23;20032;-43
2023/04/02 08:17:30;;;;;;;8.57;2.40;;;;;;;;;;6154355;23;20021;-42
2023/04/02 08:20:00;;;;;;;8.13;2.30;;;;;;;;;;6158461;23;20044;-42
2023/04/02 08:22:27;;;;;;;7.13;2.15;;;;;;;;;;6157423;23;20588;-43
2023/04/02 08:24:56;;;;;;;8.68;2.25;;;;;;;;;;6155336;23;20065;-43
2023/04/02 08:27:24;;;;;;;9.07;1.70;;;;;;;;;;6136341;23;20045;-43
2023/04/02 08:29:52;;;;;;;10.05;2.15;;;;;;;;;;6155457;23;20116;-42
2023/04/02 08:32:20;;;;;;;12.32;2.58;;;;;;;;;;6159042;23;20360;-42
2023/04/02 08:34:48;;;;;;;9.73;2.33;;;;;;;;;;6158602;23;20024;-42
2023/04/02 08:37:16;;;;;;;10.45;3.05;;;;;;;;;;6159128;23;20636;-44
2023/04/02 08:39:44;;;;;;;10.67;2.90;;;;;;;;;;6157178;23;20040;-43
2023/04/02 08:42:20;;;;;;;7.80;2.70;;;;;;;;;;6156245;23;20016;-44
2023/04/02 08:44:52;;;;;;;12.90;3.45;;;;;;;;;;6147627;23;20632;-43
2023/04/02 08:47:24;;;;;;;10.63;3.55;;;;;;;;;;6154483;23;20395;-42
2023/04/02 08:49:54;;;;;;;16.92;3.58;;;;;;;;;;6155475;23;20052;-45
2023/04/02 08:52:23;;;;;;;9.70;3.40;;;;;;;;;;6158009;23;20044;-43
2023/04/02 08:54:52;;;;;;;12.45;3.63;;;;;;;;;;6130802;23;20866;-44
2023/04/02 08:57:27;;;;;;;14.25;3.13;;;;;;;;;;6131388;23;20024;-45
2023/04/02 08:59:57;;;;;;;10.85;2.75;;;;;;;;;;6155075;23;20017;-43
2023/04/02 09:02:29;;;;;;;9.93;3.08;;;;;;;;;;6155728;23;20360;-43
2023/04/02 09:04:58;;;;;;;10.00;2.47;;;;;;;;;;6156484;23;20061;-43
2023/04/02 09:07:27;;;;;;;10.90;2.67;;;;;;;;;;6160589;23;20372;-43
2023/04/02 09:09:56;;;;;;;10.35;2.45;;;;;;;;;;6153861;23;20017;-44
2023/04/02 09:12:26;;;;;;;9.82;2.22;;;;;;;;;;6157025;23;20067;-43
2023/04/02 09:14:59;;;;;;;7.60;2.03;;;;;;;;;;6160232;23;20053;-42
2023/04/02 09:17:27;;;;;;;6.70;1.70;;;;;;;;;;6155760;23;20095;-44
2023/04/02 09:19:59;;;;;;;7.68;1.65;;;;;;;;;;6133374;23;20447;-44
2023/04/02 09:22:28;;;;;;;7.68;1.70;;;;;;;;;;6153770;23;20460;-45
2023/04/02 09:24:57;;;;;;;8.00;1.75;;;;;;;;;;6155996;23;20446;-43
2023/04/02 09:27:29;;;;;;;6.10;1.65;;;;;;;;;;6128476;23;20400;-43
2023/04/02 09:30:00;;;;;;;6.17;1.83;;;;;;;;;;6154500;23;20664;-43
2023/04/02 09:32:45;;;;;;;5.75;1.80;;;;;;;;;;6156840;23;20071;-43
2023/04/02 09:35:15;;;;;;;6.75;1.67;;;;;;;;;;6133089;23;20031;-43
2023/04/02 09:38:27;;;;;;;7.43;1.90;;;;;;;;;;6155626;23;20017;-43
2023/04/02 09:40:58;;;;;;;7.57;1.85;;;;;;;;;;6012536;23;20026;-45
2023/04/02 09:43:28;;;;;;;9.23;1.77;;;;;;;;;;6037299;23;20454;-43
2023/04/02 09:45:58;;;;;;;7.90;1.63;;;;;;;;;;6084582;23;20401;-42
2023/04/02 09:48:29;;;;;;;6.60;1.13;;;;;;;;;;6160603;23;20028;-44
2023/04/02 09:51:04;;;;;;;12.45;1.73;;;;;;;;;;6143865;23;20063;-43
2023/04/02 09:53:34;;;;;;;8.75;1.63;;;;;;;;;;6158554;23;20047;-43
2023/04/02 09:56:10;;;;;;;7.03;1.63;;;;;;;;;;6151129;23;20100;-45
2023/04/02 09:58:39;;;;;;;9.35;1.58;;;;;;;;;;6152522;23;20045;-43
2023/04/02 10:01:13;;;;;;;6.63;1.20;;;;;;;;;;6160518;23;20055;-43
2023/04/02 10:03:42;;;;;;;4.18;0.93;;;;;;;;;;6143992;23;20017;-43
2023/04/02 10:06:11;;;;;;;7.22;1.30;;;;;;;;;;6130313;23;20036;-43
2023/04/02 10:08:40;;;;;;;13.03;1.50;;;;;;;;;;6150618;23;20986;-44
2023/04/02 10:11:08;;;;;;;6.72;1.05;;;;;;;;;;6159338;23;20024;-45
2023/04/02 10:13:40;;;;;;;11.60;1.20;;;;;;;;;;6155473;23;20091;-43
2023/04/02 10:16:10;;;;;;;20.35;1.65;;;;;;;;;;6149985;23;20021;-43
2023/04/02 10:18:41;;;;;;;8.93;1.40;;;;;;;;;;6159521;23;20025;-43
2023/04/02 10:21:11;;;;;;;4.87;0.90;;;;;;;;;;6153694;23;20021;-43
2023/04/02 10:23:39;;;;;;;6.70;1.08;;;;;;;;;;6157658;23;20048;-43
2023/04/02 10:26:19;;;;;;;6.85;1.30;;;;;;;;;;6153044;23;20443;-43
2023/04/02 10:28:55;;;;;;;7.13;0.90;;;;;;;;;;6159943;23;20407;-44
2023/04/02 10:31:25;;;;;;;6.28;0.90;;;;;;;;;;6125808;23;20025;-43
2023/04/02 10:33:58;;;;;;;3.97;0.67;;;;;;;;;;6160407;23;20372;-44
2023/04/02 10:36:30;;;;;;;5.30;0.70;;;;;;;;;;6144963;23;20013;-44
2023/04/02 10:39:01;;;;;;;8.57;0.65;;;;;;;;;;6156865;23;20108;-44
2023/04/02 10:41:32;;;;;;;4.63;0.55;;;;;;;;;;6151536;23;20053;-43
2023/04/02 10:44:21;;;;;;;6.63;0.80;;;;;;;;;;6155340;23;20025;-43
2023/04/02 10:46:52;;;;;;;8.23;0.67;;;;;;;;;;6149524;23;20052;-43
2023/04/02 10:49:27;;;;;;;5.60;0.70;;;;;;;;;;6124441;23;20527;-44
2023/04/02 10:51:58;;;;;;;4.07;0.90;;;;;;;;;;6132470;23;20547;-43
2023/04/02 10:54:38;;;;;;;4.28;0.63;;;;;;;;;;6155773;23;20104;-45
2023/04/02 10:57:09;;;;;;;6.85;0.80;;;;;;;;;;6123993;23;20024;-44
2023/04/02 10:59:39;;;;;;;3.87;0.50;;;;;;;;;;6132865;23;20017;-44
2023/04/02 11:02:22;;;;;;;10.27;1.05;;;;;;;;;;6156677;23;20028;-45
2023/04/02 11:05:14;;;;;;;7.40;0.70;;;;;;;;;;6152907;23;20448;-43
2023/04/02 11:07:49;;;;;;;4.75;0.60;;;;;;;;;;6159849;23;20048;-43
2023/04/02 11:10:18;;;;;;;5.35;0.60;;;;;;;;;;6150187;23;20529;-43
2023/04/02 11:12:49;;;;;;;8.00;1.23;;;;;;;;;;6160585;23;20079;-44
2023/04/02 11:15:18;;;;;;;5.38;0.70;;;;;;;;;;6128320;23;20024;-43
2023/04/02 11:17:47;;;;;;;5.47;1.00;;;;;;;;;;6154731;23;20037;-46
2023/04/02 11:20:34;;;;;;;7.35;1.38;;;;;;;;;;6157785;23;20115;-43
2023/04/02 11:23:05;;;;;;;5.75;0.75;;;;;;;;;;6149573;23;20025;-44
2023/04/02 11:25:34;;;;;;;5.93;0.77;;;;;;;;;;6154822;23;20100;-45
2023/04/02 11:28:12;;;;;;;4.07;0.55;;;;;;;;;;6159435;23;20025;-45
2023/04/02 11:30:41;;;;;;;6.25;1.10;;;;;;;;;;6145973;23;20522;-45
2023/04/02 11:33:25;;;;;;;5.80;0.88;;;;;;;;;;6151091;23;20047;-43
2023/04/02 11:36:05;;;;;;;5.68;0.70;;;;;;;;;;6128967;23;20432;-43
2023/04/02 11:38:50;;;;;;;7.23;0.87;;;;;;;;;;6153778;23;20031;-44
2023/04/02 11:41:33;;;;;;;8.32;0.98;;;;;;;;;;6154813;23;20517;-43
2023/04/02 11:44:01;;;;;;;4.85;1.10;;;;;;;;;;6146056;23;20452;-44
2023/04/02 11:46:46;;;;;;;5.70;0.95;;;;;;;;;;6158741;23;20014;-44
2023/04/02 11:49:32;;;;;;;8.38;1.27;;;;;;;;;;6155883;23;20043;-44
2023/04/02 11:52:03;;;;;;;5.53;1.00;;;;;;;;;;6156214;23;20044;-44
2023/04/02 11:54:39;;;;;;;9.02;1.40;;;;;;;;;;6129111;23;20052;-45
2023/04/02 11:57:15;;;;;;;7.10;1.00;;;;;;;;;;6128125;23;20091;-47
2023/04/02 11:59:50;;;;;;;7.15;1.05;;;;;;;;;;6155685;23;20337;-45
2023/04/02 12:02:20;;;;;;;5.10;0.93;;;;;;;;;;6131289;23;20028;-46
2023/04/02 12:05:06;;;;;;;5.10;1.07;;;;;;;;;;6154853;23;20024;-43
2023/04/02 12:08:04;;;;;;;10.60;1.20;;;;;;;;;;6155995;23;20017;-43
2023/04/02 12:10:48;;;;;;;8.13;1.08;;;;;;;;;;6094499;23;20060;-45
2023/04/02 12:13:17;;;;;;;6.88;0.52;;;;;;;;;;6155100;23;20063;-44
2023/04/02 12:15:46;;;;;;;5.55;0.98;;;;;;;;;;6132184;23;20355;-43
2023/04/02 12:18:16;;;;;;;6.83;0.73;;;;;;;;;;6157293;23;20032;-43
2023/04/02 12:20:48;;;;;;;7.28;1.08;;;;;;;;;;6156195;23;20052;-46
2023/04/02 12:23:18;;;;;;;7.10;1.33;;;;;;;;;;6159824;23;20063;-45
2023/04/02 12:25:53;;;;;;;10.00;1.00;;;;;;;;;;6158182;23;20037;-42
2023/04/02 12:28:21;;;;;;;6.25;0.82;;;;;;;;;;6165771;23;20020;-42
2023/04/02 12:30:49;;;;;;;6.20;0.73;;;;;;;;;;6129820;23;20041;-43
2023/04/02 12:33:26;;;;;;;3.17;0.60;;;;;;;;;;6157266;23;20466;-42
2023/04/02 12:35:56;;;;;;;5.88;0.95;;;;;;;;;;6153802;23;20032;-43
2023/04/02 12:38:24;;;;;;;4.65;0.65;;;;;;;;;;6162817;23;20503;-43
2023/04/02 12:40:53;;;;;;;8.48;0.75;;;;;;;;;;6145333;23;20087;-44
2023/04/02 12:43:22;;;;;;;8.40;1.20;;;;;;;;;;6159984;23;20071;-43
2023/04/02 12:45:51;;;;;;;7.25;0.93;;;;;;;;;;6153259;23;20020;-45
2023/04/02 12:48:19;;;;;;;5.82;0.90;;;;;;;;;;6159248;23;20027;-43
2023/04/02 12:50:47;;;;;;;5.20;0.70;;;;;;;;;;6130794;23;20045;-43
2023/04/02 12:53:19;;;;;;;8.23;1.33;;;;;;;;;;6152754;23;20464;-42
2023/04/02 12:55:47;;;;;;;6.73;0.90;;;;;;;;;;6156763;23;20199;-42
2023/04/02 12:58:24;;;;;;;5.25;0.82;;;;;;;;;;6156845;23;20024;-43
2023/04/02 13:00:52;;;;;;;6.13;0.80;;;;;;;;;;6157857;23;20027;-45
2023/04/02 13:03:22;;;;;;;5.97;0.90;;;;;;;;;;6154116;23;20396;-45
2023/04/02 13:05:51;;;;;;;6.05;1.02;;;;;;;;;;6160595;23;20632;-43
2023/04/02 13:08:20;;;;;;;7.53;0.73;;;;;;;;;;6125813;23;20048;-44
2023/04/02 13:10:52;;;;;;;8.20;0.80;;;;;;;;;;6156432;23;20056;-43
2023/04/02 13:13:25;;;;;;;6.10;1.08;;;;;;;;;;6151593;23;20045;-43
2023/04/02 13:16:02;;;;;;;4.75;0.57;;;;;;;;;;6153406;23;20096;-43
2023/04/02 13:18:30;;;;;;;7.97;0.90;;;;;;;;;;6152569;23;20084;-42
2023/04/02 13:20:59;;;;;;;5.03;0.93;;;;;;;;;;6126457;23;20047;-44
2023/04/02 13:23:35;;;;;;;8.35;1.25;;;;;;;;;;6163686;23;20028;-43
2023/04/02 13:26:11;;;;;;;3.95;0.70;;;;;;;;;;6136302;23;20464;-46
2023/04/02 13:28:40;;;;;;;5.57;1.00;;;;;;;;;;6153828;23;20032;-42
2023/04/02 13:31:14;;;;;;;6.47;0.93;;;;;;;;;;6159757;23;20017;-42
2023/04/02 13:33:42;;;;;;;4.77;0.60;;;;;;;;;;6149463;23;20040;-47
2023/04/02 13:36:12;;;;;;;9.73;1.17;;;;;;;;;;6160461;23;20040;-42
2023/04/02 13:38:40;;;;;;;3.92;0.73;;;;;;;;;;6155672;23;20463;-44
2023/04/02 13:41:10;;;;;;;3.90;0.65;;;;;;;;;;6166308;23;20700;-42
2023/04/02 13:43:40;;;;;;;6.30;0.73;;;;;;;;;;6123921;23;20623;-43
2023/04/02 13:46:07;;;;;;;4.27;0.50;;;;;;;;;;6161397;23;20060;-44
2023/04/02 13:48:35;;;;;;;7.95;0.93;;;;;;;;;;6160021;23;20021;-45
2023/04/02 13:51:03;;;;;;;5.53;1.10;;;;;;;;;;6153042;23;20095;-45
2023/04/02 13:53:32;;;;;;;5.15;0.70;;;;;;;;;;6132789;23;20045;-42
2023/04/02 13:55:59;;;;;;;7.40;1.30;;;;;;;;;;6156749;23;20092;-42
2023/04/02 13:58:27;;;;;;;6.23;1.07;;;;;;;;;;6161240;23;20561;-45
2023/04/02 14:00:56;;;;;;;7.95;0.70;;;;;;;;;;6159779;23;20031;-42
2023/04/02 14:03:24;;;;;;;9.52;0.93;;;;;;;;;;6160028;23;20017;-42
2023/04/02 14:05:55;;;;;;;4.95;0.73;;;;;;;;;;6159953;23;20020;-43
2023/04/02 14:08:29;;;;;;;5.50;0.80;;;;;;;;;;6155158;23;20988;-43
2023/04/02 14:11:01;;;;;;;4.50;0.67;;;;;;;;;;6161755;23;20104;-42
2023/04/02 14:13:47;;;;;;;5.35;0.52;;;;;;;;;;6158355;23;20013;-42
2023/04/02 14:16:26;;;;;;;8.07;0.80;;;;;;;;;;6131709;23;20044;-44
2023/04/02 14:19:00;;;;;;;5.45;0.45;;;;;;;;;;6160255;23;20017;-44
2023/04/02 14:21:32;;;;;;;9.70;0.93;;;;;;;;;;6156701;23;20092;-43
2023/04/02 14:24:07;;;;;;;6.17;1.13;;;;;;;;;;6155973;23;20021;-44
2023/04/02 14:26:41;;;;;;;4.35;0.70;;;;;;;;;;6152981;23;20100;-44
2023/04/02 14:29:12;;;;;;;4.22;0.57;;;;;;;;;;6153248;23;20044;-43
2023/04/02 14:31:44;;;;;;;4.10;0.68;;;;;;;;;;6161304;23;20021;-44
2023/04/02 14:34:16;;;;;;;8.18;0.70;;;;;;;;;;6160319;23;20100;-44
2023/04/02 14:36:52;;;;;;;8.03;1.03;;;;;;;;;;6135595;23;20051;-44
2023/04/02 14:39:25;;;;;;;7.43;0.90;;;;;;;;;;6154895;23;20340;-43
2023/04/02 14:41:54;;;;;;;5.47;0.90;;;;;;;;;;6159003;23;20013;-42
2023/04/02 14:44:23;;;;;;;5.70;0.60;;;;;;;;;;6158675;23;20063;-43
2023/04/02 14:46:57;;;;;;;6.53;0.98;;;;;;;;;;6132874;23;20052;-42
2023/04/02 14:49:26;;;;;;;5.17;0.50;;;;;;;;;;6158598;23;20044;-44
2023/04/02 14:51:58;;;;;;;7.65;1.00;;;;;;;;;;6160272;23;20048;-43
2023/04/02 14:54:30;;;;;;;4.50;0.85;;;;;;;;;;6161902;23;20021;-43
2023/04/02 14:56:59;;;;;;;5.80;0.70;;;;;;;;;;6157003;23;20017;-42
2023/04/02 14:59:29;;;;;;;5.57;1.02;;;;;;;;;;6158476;23;20380;-42
2023/04/02 15:02:00;;;;;;;6.97;0.50;;;;;;;;;;6160775;23;20028;-44
2023/04/02 15:04:30;;;;;;;5.40;0.77;;;;;;;;;;6152472;23;20076;-44
2023/04/02 15:07:01;;;;;;;6.65;1.00;;;;;;;;;;6150854;23;20417;-44
2023/04/02 15:09:31;;;;;;;4.88;0.93;;;;;;;;;;6158146;23;20585;-44